sensor_id;sensor_type;location;lat;lon;timestamp;P1;durP1;ratioP1;P2;durP2;ratioP2
27201;SDS011;14717;46.924;15.474;2023-04-15T00:02:17;0.60;;;0.43;;
27201;SDS011;14717;46.924;15.474;2023-04-15T00:04:46;0.93;;;0.50;;
27201;SDS011;14717;46.924;15.474;2023-04-15T00:07:12;0.40;;;0.40;;
27201;SDS011;14717;46.924;15.474;2023-04-15T00:09:39;0.68;;;0.60;;
27201;SDS011;14717;46.924;15.474;2023-04-15T00:12:05;2.85;;;0.75;;
27201;SDS011;14717;46.924;15.474;2023-04-15T00:14:32;0.73;;;0.50;;
27201;SDS011;14717;46.924;15.474;2023-04-15T00:16:58;0.85;;;0.40;;
27201;SDS011;14717;46.924;15.474;2023-04-15T00:19:24;0.63;;;0.45;;
27201;SDS011;14717;46.924;15.474;2023-04-15T00:21:49;0.80;;;0.40;;
27201;SDS011;14717;46.924;15.474;2023-04-15T00:24:15;1.02;;;0.60;;
27201;SDS011;14717;46.924;15.474;2023-04-15T00:26:41;0.80;;;0.60;;
27201;SDS011;14717;46.924;15.474;2023-04-15T00:29:06;0.82;;;0.60;;
27201;SDS011;14717;46.924;15.474;2023-04-15T00:31:32;0.38;;;0.38;;
27201;SDS011;14717;46.924;15.474;2023-04-15T00:33:57;0.73;;;0.43;;
27201;SDS011;14717;46.924;15.474;2023-04-15T00:36:23;1.45;;;0.70;;
27201;SDS011;14717;46.924;15.474;2023-04-15T00:38:50;1.02;;;0.60;;
27201;SDS011;14717;46.924;15.474;2023-04-15T00:41:15;2.30;;;0.75;;
27201;SDS011;14717;46.924;15.474;2023-04-15T00:43:43;1.10;;;0.70;;
27201;SDS011;14717;46.924;15.474;2023-04-15T00:46:08;0.70;;;0.47;;
27201;SDS011;14717;46.924;15.474;2023-04-15T00:48:36;0.47;;;0.45;;
27201;SDS011;14717;46.924;15.474;2023-04-15T00:51:02;2.00;;;0.70;;
27201;SDS011;14717;46.924;15.474;2023-04-15T00:53:28;1.50;;;0.70;;
27201;SDS011;14717;46.924;15.474;2023-04-15T00:55:53;2.47;;;0.80;;
27201;SDS011;14717;46.924;15.474;2023-04-15T00:58:20;0.68;;;0.50;;
27201;SDS011;14717;46.924;15.474;2023-04-15T01:00:45;1.30;;;0.75;;
27201;SDS011;14717;46.924;15.474;2023-04-15T01:03:11;1.13;;;0.60;;
27201;SDS011;14717;46.924;15.474;2023-04-15T01:05:37;1.35;;;0.55;;
27201;SDS011;14717;46.924;15.474;2023-04-15T01:08:04;1.88;;;0.75;;
27201;SDS011;14717;46.924;15.474;2023-04-15T01:10:30;0.82;;;0.70;;
27201;SDS011;14717;46.924;15.474;2023-04-15T01:12:55;1.58;;;0.85;;
27201;SDS011;14717;46.924;15.474;2023-04-15T01:15:21;0.82;;;0.60;;
27201;SDS011;14717;46.924;15.474;2023-04-15T01:17:47;0.65;;;0.60;;
27201;SDS011;14717;46.924;15.474;2023-04-15T01:20:12;0.90;;;0.50;;
27201;SDS011;14717;46.924;15.474;2023-04-15T01:22:39;0.50;;;0.40;;
27201;SDS011;14717;46.924;15.474;2023-04-15T01:25:07;0.63;;;0.50;;
27201;SDS011;14717;46.924;15.474;2023-04-15T01:27:36;0.82;;;0.70;;
27201;SDS011;14717;46.924;15.474;2023-04-15T01:30:05;2.13;;;0.90;;
27201;SDS011;14717;46.924;15.474;2023-04-15T01:32:32;0.93;;;0.63;;
27201;SDS011;14717;46.924;15.474;2023-04-15T01:34:57;0.50;;;0.50;;
27201;SDS011;14717;46.924;15.474;2023-04-15T01:37:23;0.50;;;0.50;;
27201;SDS011;14717;46.924;15.474;2023-04-15T01:39:49;0.50;;;0.50;;
27201;SDS011;14717;46.924;15.474;2023-04-15T01:42:14;1.48;;;0.90;;
27201;SDS011;14717;46.924;15.474;2023-04-15T01:44:40;0.90;;;0.70;;
27201;SDS011;14717;46.924;15.474;2023-04-15T01:47:05;0.90;;;0.60;;
27201;SDS011;14717;46.924;15.474;2023-04-15T01:49:31;0.80;;;0.55;;
27201;SDS011;14717;46.924;15.474;2023-04-15T01:51:56;0.90;;;0.60;;
27201;SDS011;14717;46.924;15.474;2023-04-15T01:54:22;0.60;;;0.50;;
27201;SDS011;14717;46.924;15.474;2023-04-15T01:56:47;2.17;;;0.70;;
27201;SDS011;14717;46.924;15.474;2023-04-15T01:59:12;1.85;;;0.57;;
27201;SDS011;14717;46.924;15.474;2023-04-15T02:01:38;2.15;;;1.30;;
27201;SDS011;14717;46.924;15.474;2023-04-15T02:04:05;1.20;;;1.00;;
27201;SDS011;14717;46.924;15.474;2023-04-15T02:06:31;1.73;;;0.85;;
27201;SDS011;14717;46.924;15.474;2023-04-15T02:08:56;2.67;;;0.70;;
27201;SDS011;14717;46.924;15.474;2023-04-15T02:13:48;0.80;;;0.60;;
27201;SDS011;14717;46.924;15.474;2023-04-15T02:16:17;1.42;;;0.73;;
27201;SDS011;14717;46.924;15.474;2023-04-15T02:18:46;4.03;;;0.90;;
27201;SDS011;14717;46.924;15.474;2023-04-15T02:21:11;2.30;;;0.60;;
27201;SDS011;14717;46.924;15.474;2023-04-15T02:23:37;0.50;;;0.50;;
27201;SDS011;14717;46.924;15.474;2023-04-15T02:26:02;0.50;;;0.50;;
27201;SDS011;14717;46.924;15.474;2023-04-15T02:28:28;1.00;;;0.50;;
27201;SDS011;14717;46.924;15.474;2023-04-15T02:30:53;0.80;;;0.40;;
27201;SDS011;14717;46.924;15.474;2023-04-15T02:33:21;1.58;;;0.80;;
27201;SDS011;14717;46.924;15.474;2023-04-15T02:35:47;1.33;;;0.40;;
27201;SDS011;14717;46.924;15.474;2023-04-15T02:38:12;1.13;;;0.55;;
27201;SDS011;14717;46.924;15.474;2023-04-15T02:40:38;1.02;;;0.63;;
27201;SDS011;14717;46.924;15.474;2023-04-15T02:43:04;1.40;;;0.60;;
27201;SDS011;14717;46.924;15.474;2023-04-15T02:45:31;0.85;;;0.43;;
27201;SDS011;14717;46.924;15.474;2023-04-15T02:47:57;1.17;;;0.40;;
27201;SDS011;14717;46.924;15.474;2023-04-15T02:50:22;5.05;;;0.52;;
27201;SDS011;14717;46.924;15.474;2023-04-15T02:52:49;1.55;;;0.63;;
27201;SDS011;14717;46.924;15.474;2023-04-15T02:57:42;2.47;;;0.73;;
27201;SDS011;14717;46.924;15.474;2023-04-15T03:00:07;0.65;;;0.60;;
27201;SDS011;14717;46.924;15.474;2023-04-15T03:02:35;0.70;;;0.60;;
27201;SDS011;14717;46.924;15.474;2023-04-15T03:05:02;0.68;;;0.50;;
27201;SDS011;14717;46.924;15.474;2023-04-15T03:07:28;1.60;;;1.02;;
27201;SDS011;14717;46.924;15.474;2023-04-15T03:09:54;2.65;;;1.02;;
27201;SDS011;14717;46.924;15.474;2023-04-15T03:12:19;3.65;;;1.30;;
27201;SDS011;14717;46.924;15.474;2023-04-15T03:14:45;2.10;;;1.10;;
27201;SDS011;14717;46.924;15.474;2023-04-15T03:17:10;2.72;;;1.20;;
27201;SDS011;14717;46.924;15.474;2023-04-15T03:19:36;8.27;;;3.85;;
27201;SDS011;14717;46.924;15.474;2023-04-15T03:22:01;11.40;;;4.70;;
27201;SDS011;14717;46.924;15.474;2023-04-15T03:24:26;17.35;;;7.05;;
27201;SDS011;14717;46.924;15.474;2023-04-15T03:26:53;17.95;;;7.30;;
27201;SDS011;14717;46.924;15.474;2023-04-15T03:29:19;8.70;;;4.07;;
27201;SDS011;14717;46.924;15.474;2023-04-15T03:31:44;19.33;;;8.38;;
27201;SDS011;14717;46.924;15.474;2023-04-15T03:34:10;18.83;;;8.35;;
27201;SDS011;14717;46.924;15.474;2023-04-15T03:36:35;3.05;;;1.52;;
27201;SDS011;14717;46.924;15.474;2023-04-15T03:39:01;3.88;;;1.23;;
27201;SDS011;14717;46.924;15.474;2023-04-15T03:41:26;2.78;;;1.30;;
27201;SDS011;14717;46.924;15.474;2023-04-15T03:43:52;2.92;;;1.33;;
27201;SDS011;14717;46.924;15.474;2023-04-15T03:46:18;2.38;;;1.00;;
27201;SDS011;14717;46.924;15.474;2023-04-15T03:48:43;3.90;;;1.58;;
27201;SDS011;14717;46.924;15.474;2023-04-15T03:51:09;3.33;;;1.63;;
27201;SDS011;14717;46.924;15.474;2023-04-15T03:53:34;8.18;;;3.78;;
27201;SDS011;14717;46.924;15.474;2023-04-15T03:56:00;5.55;;;2.80;;
27201;SDS011;14717;46.924;15.474;2023-04-15T03:58:26;2.70;;;1.60;;
27201;SDS011;14717;46.924;15.474;2023-04-15T04:00:51;4.53;;;2.00;;
27201;SDS011;14717;46.924;15.474;2023-04-15T04:03:17;3.22;;;1.63;;
27201;SDS011;14717;46.924;15.474;2023-04-15T04:05:42;3.63;;;1.80;;
27201;SDS011;14717;46.924;15.474;2023-04-15T04:08:08;4.60;;;1.65;;
27201;SDS011;14717;46.924;15.474;2023-04-15T04:10:34;5.50;;;2.50;;
27201;SDS011;14717;46.924;15.474;2023-04-15T04:12:59;3.38;;;1.85;;
27201;SDS011;14717;46.924;15.474;2023-04-15T04:15:25;4.22;;;2.00;;
27201;SDS011;14717;46.924;15.474;2023-04-15T04:17:51;3.53;;;2.05;;
27201;SDS011;14717;46.924;15.474;2023-04-15T04:20:16;33.10;;;9.85;;
27201;SDS011;14717;46.924;15.474;2023-04-15T04:22:41;11.75;;;4.07;;
27201;SDS011;14717;46.924;15.474;2023-04-15T04:25:07;4.15;;;2.10;;
27201;SDS011;14717;46.924;15.474;2023-04-15T04:27:34;3.97;;;1.23;;
27201;SDS011;14717;46.924;15.474;2023-04-15T04:29:59;1.92;;;1.30;;
27201;SDS011;14717;46.924;15.474;2023-04-15T04:32:25;3.17;;;1.77;;
27201;SDS011;14717;46.924;15.474;2023-04-15T04:34:51;2.63;;;1.58;;
27201;SDS011;14717;46.924;15.474;2023-04-15T04:37:16;2.60;;;1.50;;
27201;SDS011;14717;46.924;15.474;2023-04-15T04:39:41;1.52;;;1.10;;
27201;SDS011;14717;46.924;15.474;2023-04-15T04:42:07;1.52;;;0.95;;
27201;SDS011;14717;46.924;15.474;2023-04-15T04:44:32;2.33;;;1.13;;
27201;SDS011;14717;46.924;15.474;2023-04-15T04:46:58;1.35;;;0.82;;
27201;SDS011;14717;46.924;15.474;2023-04-15T04:49:23;1.70;;;1.10;;
27201;SDS011;14717;46.924;15.474;2023-04-15T04:51:49;1.58;;;0.98;;
27201;SDS011;14717;46.924;15.474;2023-04-15T04:54:15;0.57;;;0.52;;
27201;SDS011;14717;46.924;15.474;2023-04-15T04:56:41;1.65;;;0.90;;
27201;SDS011;14717;46.924;15.474;2023-04-15T04:59:06;2.55;;;1.48;;
27201;SDS011;14717;46.924;15.474;2023-04-15T05:01:31;2.25;;;1.10;;
27201;SDS011;14717;46.924;15.474;2023-04-15T05:03:57;1.48;;;1.10;;
27201;SDS011;14717;46.924;15.474;2023-04-15T05:06:23;1.33;;;0.90;;
27201;SDS011;14717;46.924;15.474;2023-04-15T05:08:48;1.70;;;0.98;;
27201;SDS011;14717;46.924;15.474;2023-04-15T05:11:14;1.63;;;1.30;;
27201;SDS011;14717;46.924;15.474;2023-04-15T05:13:39;4.50;;;2.05;;
27201;SDS011;14717;46.924;15.474;2023-04-15T05:16:04;8.57;;;4.40;;
27201;SDS011;14717;46.924;15.474;2023-04-15T05:18:30;10.20;;;4.85;;
27201;SDS011;14717;46.924;15.474;2023-04-15T05:20:56;8.40;;;3.60;;
27201;SDS011;14717;46.924;15.474;2023-04-15T05:23:21;9.88;;;4.22;;
27201;SDS011;14717;46.924;15.474;2023-04-15T05:25:47;3.70;;;1.88;;
27201;SDS011;14717;46.924;15.474;2023-04-15T05:28:12;3.15;;;1.33;;
27201;SDS011;14717;46.924;15.474;2023-04-15T05:30:37;1.88;;;1.15;;
27201;SDS011;14717;46.924;15.474;2023-04-15T05:33:03;3.35;;;1.48;;
27201;SDS011;14717;46.924;15.474;2023-04-15T05:35:28;5.05;;;3.08;;
27201;SDS011;14717;46.924;15.474;2023-04-15T05:37:54;4.40;;;2.08;;
27201;SDS011;14717;46.924;15.474;2023-04-15T05:40:19;3.10;;;1.38;;
27201;SDS011;14717;46.924;15.474;2023-04-15T05:42:45;2.67;;;1.30;;
27201;SDS011;14717;46.924;15.474;2023-04-15T05:45:10;3.33;;;1.55;;
27201;SDS011;14717;46.924;15.474;2023-04-15T05:47:36;2.75;;;1.42;;
27201;SDS011;14717;46.924;15.474;2023-04-15T05:50:02;3.38;;;1.50;;
27201;SDS011;14717;46.924;15.474;2023-04-15T05:52:28;3.40;;;1.73;;
27201;SDS011;14717;46.924;15.474;2023-04-15T05:54:54;7.15;;;2.58;;
27201;SDS011;14717;46.924;15.474;2023-04-15T05:57:19;5.45;;;2.10;;
27201;SDS011;14717;46.924;15.474;2023-04-15T05:59:45;4.68;;;2.33;;
27201;SDS011;14717;46.924;15.474;2023-04-15T06:02:10;3.17;;;1.90;;
27201;SDS011;14717;46.924;15.474;2023-04-15T06:04:36;3.83;;;2.20;;
27201;SDS011;14717;46.924;15.474;2023-04-15T06:07:01;1.70;;;1.20;;
27201;SDS011;14717;46.924;15.474;2023-04-15T06:09:27;2.13;;;1.30;;
27201;SDS011;14717;46.924;15.474;2023-04-15T06:11:53;1.80;;;1.30;;
27201;SDS011;14717;46.924;15.474;2023-04-15T06:14:18;1.67;;;1.20;;
27201;SDS011;14717;46.924;15.474;2023-04-15T06:16:44;2.70;;;1.20;;
27201;SDS011;14717;46.924;15.474;2023-04-15T06:19:09;2.95;;;1.30;;
27201;SDS011;14717;46.924;15.474;2023-04-15T06:21:34;4.35;;;1.90;;
27201;SDS011;14717;46.924;15.474;2023-04-15T06:24:00;4.18;;;1.92;;
27201;SDS011;14717;46.924;15.474;2023-04-15T06:26:26;3.60;;;2.28;;
27201;SDS011;14717;46.924;15.474;2023-04-15T06:28:52;5.32;;;2.30;;
27201;SDS011;14717;46.924;15.474;2023-04-15T06:31:17;4.75;;;2.25;;
27201;SDS011;14717;46.924;15.474;2023-04-15T06:33:43;2.47;;;1.40;;
27201;SDS011;14717;46.924;15.474;2023-04-15T06:36:08;2.22;;;1.30;;
27201;SDS011;14717;46.924;15.474;2023-04-15T06:38:33;2.70;;;1.58;;
27201;SDS011;14717;46.924;15.474;2023-04-15T06:40:59;2.60;;;1.50;;
27201;SDS011;14717;46.924;15.474;2023-04-15T06:43:24;3.28;;;1.60;;
27201;SDS011;14717;46.924;15.474;2023-04-15T06:45:50;2.17;;;1.38;;
27201;SDS011;14717;46.924;15.474;2023-04-15T06:48:15;2.72;;;1.50;;
27201;SDS011;14717;46.924;15.474;2023-04-15T06:50:41;2.40;;;1.50;;
27201;SDS011;14717;46.924;15.474;2023-04-15T06:53:07;3.00;;;1.60;;
27201;SDS011;14717;46.924;15.474;2023-04-15T06:55:32;3.80;;;1.70;;
27201;SDS011;14717;46.924;15.474;2023-04-15T06:57:58;2.40;;;1.70;;
27201;SDS011;14717;46.924;15.474;2023-04-15T07:00:23;3.83;;;1.65;;
27201;SDS011;14717;46.924;15.474;2023-04-15T07:02:49;2.47;;;1.40;;
27201;SDS011;14717;46.924;15.474;2023-04-15T07:05:15;3.42;;;1.40;;
27201;SDS011;14717;46.924;15.474;2023-04-15T07:07:40;3.88;;;1.80;;
27201;SDS011;14717;46.924;15.474;2023-04-15T07:10:06;4.50;;;1.90;;
27201;SDS011;14717;46.924;15.474;2023-04-15T07:12:32;3.55;;;1.65;;
27201;SDS011;14717;46.924;15.474;2023-04-15T07:14:59;3.13;;;1.60;;
27201;SDS011;14717;46.924;15.474;2023-04-15T07:17:24;7.07;;;3.47;;
27201;SDS011;14717;46.924;15.474;2023-04-15T07:19:49;3.72;;;2.10;;
27201;SDS011;14717;46.924;15.474;2023-04-15T07:22:15;5.30;;;2.42;;
27201;SDS011;14717;46.924;15.474;2023-04-15T07:24:40;3.90;;;1.65;;
27201;SDS011;14717;46.924;15.474;2023-04-15T07:27:06;3.95;;;1.90;;
27201;SDS011;14717;46.924;15.474;2023-04-15T07:29:32;6.18;;;1.80;;
27201;SDS011;14717;46.924;15.474;2023-04-15T07:31:57;4.75;;;2.13;;
27201;SDS011;14717;46.924;15.474;2023-04-15T07:34:23;5.55;;;2.20;;
27201;SDS011;14717;46.924;15.474;2023-04-15T07:36:48;5.20;;;2.50;;
27201;SDS011;14717;46.924;15.474;2023-04-15T07:39:15;3.75;;;2.10;;
27201;SDS011;14717;46.924;15.474;2023-04-15T07:41:41;3.13;;;1.98;;
27201;SDS011;14717;46.924;15.474;2023-04-15T07:44:07;6.15;;;2.13;;
27201;SDS011;14717;46.924;15.474;2023-04-15T07:46:33;4.10;;;2.30;;
27201;SDS011;14717;46.924;15.474;2023-04-15T07:48:58;3.88;;;2.20;;
27201;SDS011;14717;46.924;15.474;2023-04-15T07:51:24;5.57;;;2.08;;
27201;SDS011;14717;46.924;15.474;2023-04-15T07:53:49;4.35;;;2.80;;
27201;SDS011;14717;46.924;15.474;2023-04-15T07:56:15;5.70;;;2.42;;
27201;SDS011;14717;46.924;15.474;2023-04-15T07:58:40;4.97;;;2.03;;
27201;SDS011;14717;46.924;15.474;2023-04-15T08:01:06;3.97;;;1.90;;
27201;SDS011;14717;46.924;15.474;2023-04-15T08:03:32;4.75;;;1.95;;
27201;SDS011;14717;46.924;15.474;2023-04-15T08:05:57;4.60;;;2.00;;
27201;SDS011;14717;46.924;15.474;2023-04-15T08:08:23;3.42;;;2.10;;
27201;SDS011;14717;46.924;15.474;2023-04-15T08:10:49;6.03;;;2.00;;
27201;SDS011;14717;46.924;15.474;2023-04-15T08:13:14;6.20;;;2.67;;
27201;SDS011;14717;46.924;15.474;2023-04-15T08:15:40;7.05;;;3.15;;
27201;SDS011;14717;46.924;15.474;2023-04-15T08:18:06;6.35;;;2.65;;
27201;SDS011;14717;46.924;15.474;2023-04-15T08:20:31;6.80;;;2.90;;
27201;SDS011;14717;46.924;15.474;2023-04-15T08:22:57;6.30;;;2.90;;
27201;SDS011;14717;46.924;15.474;2023-04-15T08:25:24;3.83;;;2.25;;
27201;SDS011;14717;46.924;15.474;2023-04-15T08:27:49;4.93;;;2.20;;
27201;SDS011;14717;46.924;15.474;2023-04-15T08:30:15;3.42;;;2.10;;
27201;SDS011;14717;46.924;15.474;2023-04-15T08:32:41;5.00;;;2.22;;
27201;SDS011;14717;46.924;15.474;2023-04-15T08:35:10;3.33;;;2.13;;
27201;SDS011;14717;46.924;15.474;2023-04-15T08:37:38;3.75;;;2.30;;
27201;SDS011;14717;46.924;15.474;2023-04-15T08:40:04;4.72;;;2.20;;
27201;SDS011;14717;46.924;15.474;2023-04-15T08:42:31;4.15;;;2.20;;
27201;SDS011;14717;46.924;15.474;2023-04-15T08:45:03;4.25;;;2.67;;
27201;SDS011;14717;46.924;15.474;2023-04-15T08:47:29;3.45;;;2.45;;
27201;SDS011;14717;46.924;15.474;2023-04-15T08:49:58;4.82;;;2.45;;
27201;SDS011;14717;46.924;15.474;2023-04-15T08:52:29;4.25;;;2.38;;
27201;SDS011;14717;46.924;15.474;2023-04-15T08:54:55;3.72;;;2.13;;
27201;SDS011;14717;46.924;15.474;2023-04-15T08:57:27;3.70;;;2.20;;
27201;SDS011;14717;46.924;15.474;2023-04-15T08:59:57;4.57;;;2.35;;
27201;SDS011;14717;46.924;15.474;2023-04-15T09:02:23;5.82;;;2.60;;
27201;SDS011;14717;46.924;15.474;2023-04-15T09:04:51;4.10;;;2.47;;
27201;SDS011;14717;46.924;15.474;2023-04-15T09:09:42;5.53;;;2.50;;
27201;SDS011;14717;46.924;15.474;2023-04-15T09:12:08;3.78;;;2.20;;
27201;SDS011;14717;46.924;15.474;2023-04-15T09:17:00;4.00;;;2.10;;
27201;SDS011;14717;46.924;15.474;2023-04-15T09:19:27;3.67;;;2.10;;
27201;SDS011;14717;46.924;15.474;2023-04-15T09:21:54;3.90;;;2.20;;
27201;SDS011;14717;46.924;15.474;2023-04-15T09:24:23;4.65;;;2.22;;
27201;SDS011;14717;46.924;15.474;2023-04-15T09:26:51;3.60;;;2.22;;
27201;SDS011;14717;46.924;15.474;2023-04-15T09:29:21;4.00;;;1.85;;
27201;SDS011;14717;46.924;15.474;2023-04-15T09:31:48;3.75;;;1.85;;
27201;SDS011;14717;46.924;15.474;2023-04-15T09:34:14;4.03;;;2.13;;
27201;SDS011;14717;46.924;15.474;2023-04-15T09:39:11;4.15;;;1.75;;
27201;SDS011;14717;46.924;15.474;2023-04-15T09:41:38;2.60;;;1.85;;
27201;SDS011;14717;46.924;15.474;2023-04-15T09:44:05;3.67;;;2.05;;
27201;SDS011;14717;46.924;15.474;2023-04-15T09:46:43;3.72;;;2.13;;
27201;SDS011;14717;46.924;15.474;2023-04-15T09:49:10;3.42;;;1.90;;
27201;SDS011;14717;46.924;15.474;2023-04-15T09:51:37;2.97;;;1.90;;
27201;SDS011;14717;46.924;15.474;2023-04-15T09:54:03;2.78;;;1.77;;
27201;SDS011;14717;46.924;15.474;2023-04-15T09:56:35;3.72;;;2.10;;
27201;SDS011;14717;46.924;15.474;2023-04-15T09:59:06;4.82;;;2.53;;
27201;SDS011;14717;46.924;15.474;2023-04-15T10:01:32;3.08;;;1.83;;
27201;SDS011;14717;46.924;15.474;2023-04-15T10:03:58;3.95;;;2.15;;
27201;SDS011;14717;46.924;15.474;2023-04-15T10:06:27;3.88;;;2.13;;
27201;SDS011;14717;46.924;15.474;2023-04-15T10:08:54;3.58;;;2.05;;
27201;SDS011;14717;46.924;15.474;2023-04-15T10:11:20;2.95;;;1.85;;
27201;SDS011;14717;46.924;15.474;2023-04-15T10:13:48;4.35;;;2.17;;
27201;SDS011;14717;46.924;15.474;2023-04-15T10:16:15;4.18;;;2.22;;
27201;SDS011;14717;46.924;15.474;2023-04-15T10:18:43;5.05;;;1.92;;
27201;SDS011;14717;46.924;15.474;2023-04-15T10:21:10;2.65;;;1.63;;
27201;SDS011;14717;46.924;15.474;2023-04-15T10:23:38;3.13;;;1.85;;
27201;SDS011;14717;46.924;15.474;2023-04-15T10:26:04;3.92;;;1.95;;
27201;SDS011;14717;46.924;15.474;2023-04-15T10:28:30;2.83;;;1.65;;
27201;SDS011;14717;46.924;15.474;2023-04-15T10:30:56;3.00;;;1.85;;
27201;SDS011;14717;46.924;15.474;2023-04-15T10:33:23;3.40;;;1.92;;
27201;SDS011;14717;46.924;15.474;2023-04-15T10:35:50;4.28;;;2.33;;
27201;SDS011;14717;46.924;15.474;2023-04-15T10:41:12;4.63;;;2.50;;
27201;SDS011;14717;46.924;15.474;2023-04-15T10:43:47;3.30;;;1.90;;
27201;SDS011;14717;46.924;15.474;2023-04-15T10:46:22;3.63;;;1.90;;
27201;SDS011;14717;46.924;15.474;2023-04-15T10:49:12;3.25;;;2.03;;
27201;SDS011;14717;46.924;15.474;2023-04-15T10:51:42;8.45;;;3.40;;
27201;SDS011;14717;46.924;15.474;2023-04-15T10:54:14;4.32;;;2.25;;
27201;SDS011;14717;46.924;15.474;2023-04-15T10:57:06;3.20;;;1.80;;
27201;SDS011;14717;46.924;15.474;2023-04-15T10:59:32;2.33;;;1.30;;
27201;SDS011;14717;46.924;15.474;2023-04-15T11:02:05;3.05;;;1.75;;
27201;SDS011;14717;46.924;15.474;2023-04-15T11:04:50;2.35;;;1.50;;
27201;SDS011;14717;46.924;15.474;2023-04-15T11:12:42;2.83;;;1.80;;
27201;SDS011;14717;46.924;15.474;2023-04-15T11:15:28;1.85;;;1.17;;
27201;SDS011;14717;46.924;15.474;2023-04-15T11:20:58;2.53;;;1.40;;
27201;SDS011;14717;46.924;15.474;2023-04-15T11:23:34;1.98;;;1.25;;
27201;SDS011;14717;46.924;15.474;2023-04-15T11:26:01;3.55;;;1.52;;
27201;SDS011;14717;46.924;15.474;2023-04-15T11:28:30;2.38;;;1.30;;
27201;SDS011;14717;46.924;15.474;2023-04-15T11:30:56;3.78;;;1.63;;
27201;SDS011;14717;46.924;15.474;2023-04-15T11:33:22;2.00;;;1.20;;
27201;SDS011;14717;46.924;15.474;2023-04-15T11:35:48;3.03;;;1.63;;
27201;SDS011;14717;46.924;15.474;2023-04-15T11:38:14;3.35;;;1.70;;
27201;SDS011;14717;46.924;15.474;2023-04-15T11:40:40;3.20;;;1.70;;
27201;SDS011;14717;46.924;15.474;2023-04-15T11:43:10;2.92;;;1.40;;
27201;SDS011;14717;46.924;15.474;2023-04-15T11:45:59;2.95;;;1.58;;
27201;SDS011;14717;46.924;15.474;2023-04-15T11:51:01;1.92;;;1.15;;
27201;SDS011;14717;46.924;15.474;2023-04-15T11:54:02;1.45;;;1.00;;
27201;SDS011;14717;46.924;15.474;2023-04-15T11:56:24;1.20;;;0.80;;
27201;SDS011;14717;46.924;15.474;2023-04-15T11:58:51;1.67;;;1.00;;
27201;SDS011;14717;46.924;15.474;2023-04-15T12:01:18;1.42;;;0.80;;
27201;SDS011;14717;46.924;15.474;2023-04-15T12:03:44;0.80;;;0.55;;
27201;SDS011;14717;46.924;15.474;2023-04-15T12:06:23;1.42;;;0.65;;
27201;SDS011;14717;46.924;15.474;2023-04-15T12:11:55;0.98;;;0.60;;
27201;SDS011;14717;46.924;15.474;2023-04-15T12:22:00;0.73;;;0.70;;
27201;SDS011;14717;46.924;15.474;2023-04-15T12:24:34;0.95;;;0.57;;
27201;SDS011;14717;46.924;15.474;2023-04-15T12:27:01;0.43;;;0.43;;
27201;SDS011;14717;46.924;15.474;2023-04-15T12:29:28;1.10;;;0.50;;
27201;SDS011;14717;46.924;15.474;2023-04-15T12:31:55;1.25;;;0.50;;
27201;SDS011;14717;46.924;15.474;2023-04-15T12:34:25;0.40;;;0.30;;
27201;SDS011;14717;46.924;15.474;2023-04-15T12:36:53;2.10;;;0.50;;
27201;SDS011;14717;46.924;15.474;2023-04-15T12:39:25;1.52;;;0.40;;
27201;SDS011;14717;46.924;15.474;2023-04-15T12:41:53;0.77;;;0.40;;
27201;SDS011;14717;46.924;15.474;2023-04-15T12:44:18;0.68;;;0.45;;
27201;SDS011;14717;46.924;15.474;2023-04-15T12:46:45;0.73;;;0.50;;
27201;SDS011;14717;46.924;15.474;2023-04-15T12:49:10;0.82;;;0.40;;
27201;SDS011;14717;46.924;15.474;2023-04-15T12:51:36;0.43;;;0.38;;
27201;SDS011;14717;46.924;15.474;2023-04-15T12:54:01;0.45;;;0.30;;
27201;SDS011;14717;46.924;15.474;2023-04-15T12:56:27;0.50;;;0.50;;
27201;SDS011;14717;46.924;15.474;2023-04-15T12:58:52;0.93;;;0.50;;
27201;SDS011;14717;46.924;15.474;2023-04-15T13:01:18;1.52;;;0.45;;
27201;SDS011;14717;46.924;15.474;2023-04-15T13:03:43;0.75;;;0.50;;
27201;SDS011;14717;46.924;15.474;2023-04-15T13:06:09;1.65;;;0.70;;
27201;SDS011;14717;46.924;15.474;2023-04-15T13:08:35;1.30;;;0.60;;
27201;SDS011;14717;46.924;15.474;2023-04-15T13:11:00;1.77;;;0.90;;
27201;SDS011;14717;46.924;15.474;2023-04-15T13:13:25;2.38;;;0.70;;
27201;SDS011;14717;46.924;15.474;2023-04-15T13:15:51;0.63;;;0.50;;
27201;SDS011;14717;46.924;15.474;2023-04-15T13:18:17;0.52;;;0.52;;
27201;SDS011;14717;46.924;15.474;2023-04-15T13:20:42;1.13;;;0.45;;
27201;SDS011;14717;46.924;15.474;2023-04-15T13:23:07;1.52;;;0.60;;
27201;SDS011;14717;46.924;15.474;2023-04-15T13:25:33;0.90;;;0.50;;
27201;SDS011;14717;46.924;15.474;2023-04-15T13:27:59;1.05;;;0.50;;
27201;SDS011;14717;46.924;15.474;2023-04-15T13:30:25;0.50;;;0.30;;
27201;SDS011;14717;46.924;15.474;2023-04-15T13:32:51;1.10;;;0.57;;
27201;SDS011;14717;46.924;15.474;2023-04-15T13:35:18;0.80;;;0.60;;
27201;SDS011;14717;46.924;15.474;2023-04-15T13:37:43;0.73;;;0.38;;
27201;SDS011;14717;46.924;15.474;2023-04-15T13:40:09;1.75;;;0.60;;
27201;SDS011;14717;46.924;15.474;2023-04-15T13:42:35;1.05;;;0.70;;
27201;SDS011;14717;46.924;15.474;2023-04-15T13:45:01;0.73;;;0.52;;
27201;SDS011;14717;46.924;15.474;2023-04-15T13:47:27;0.85;;;0.52;;
27201;SDS011;14717;46.924;15.474;2023-04-15T13:49:52;0.65;;;0.60;;
27201;SDS011;14717;46.924;15.474;2023-04-15T13:52:20;0.75;;;0.55;;
27201;SDS011;14717;46.924;15.474;2023-04-15T13:54:45;0.95;;;0.60;;
27201;SDS011;14717;46.924;15.474;2023-04-15T13:57:11;0.47;;;0.32;;
27201;SDS011;14717;46.924;15.474;2023-04-15T13:59:37;0.57;;;0.57;;
27201;SDS011;14717;46.924;15.474;2023-04-15T14:02:02;0.70;;;0.60;;
27201;SDS011;14717;46.924;15.474;2023-04-15T14:04:29;1.02;;;0.50;;
27201;SDS011;14717;46.924;15.474;2023-04-15T14:06:57;1.25;;;0.52;;
27201;SDS011;14717;46.924;15.474;2023-04-15T14:09:23;1.40;;;0.75;;
27201;SDS011;14717;46.924;15.474;2023-04-15T14:11:51;2.55;;;0.95;;
27201;SDS011;14717;46.924;15.474;2023-04-15T14:14:16;2.67;;;0.70;;
27201;SDS011;14717;46.924;15.474;2023-04-15T14:16:42;1.92;;;0.90;;
27201;SDS011;14717;46.924;15.474;2023-04-15T14:19:07;3.28;;;1.13;;
27201;SDS011;14717;46.924;15.474;2023-04-15T14:21:32;0.73;;;0.52;;
27201;SDS011;14717;46.924;15.474;2023-04-15T14:23:58;4.80;;;1.95;;
27201;SDS011;14717;46.924;15.474;2023-04-15T14:26:23;3.47;;;1.20;;
27201;SDS011;14717;46.924;15.474;2023-04-15T14:28:49;4.38;;;2.10;;
27201;SDS011;14717;46.924;15.474;2023-04-15T14:31:15;1.30;;;0.90;;
27201;SDS011;14717;46.924;15.474;2023-04-15T14:33:40;3.83;;;1.17;;
27201;SDS011;14717;46.924;15.474;2023-04-15T14:36:06;1.73;;;0.88;;
27201;SDS011;14717;46.924;15.474;2023-04-15T14:38:33;1.38;;;0.60;;
27201;SDS011;14717;46.924;15.474;2023-04-15T14:41:02;1.55;;;0.75;;
27201;SDS011;14717;46.924;15.474;2023-04-15T14:43:28;1.70;;;0.90;;
27201;SDS011;14717;46.924;15.474;2023-04-15T14:45:54;1.35;;;0.90;;
27201;SDS011;14717;46.924;15.474;2023-04-15T14:48:19;3.05;;;1.20;;
27201;SDS011;14717;46.924;15.474;2023-04-15T14:50:45;2.05;;;1.05;;
27201;SDS011;14717;46.924;15.474;2023-04-15T14:53:10;2.58;;;1.20;;
27201;SDS011;14717;46.924;15.474;2023-04-15T14:55:36;2.72;;;1.10;;
27201;SDS011;14717;46.924;15.474;2023-04-15T14:58:04;2.65;;;1.00;;
27201;SDS011;14717;46.924;15.474;2023-04-15T15:27:23;2.90;;;1.30;;
27201;SDS011;14717;46.924;15.474;2023-04-15T15:29:54;1.60;;;0.85;;
27201;SDS011;14717;46.924;15.474;2023-04-15T15:32:48;3.47;;;1.20;;
27201;SDS011;14717;46.924;15.474;2023-04-15T15:35:14;2.33;;;1.15;;